If you wish to contribute or participate in the discussions about articles you are invited to join SKYbrary as a registered user

 Actions

Angel S Adami Airport

From SKYbrary Wiki

SUAA
Airport
ICAO: SUAA
Summary
Name Angel S Adami Airport
Region
Territory Uruguay UY.gif
Location , Montevideo
Serving Montevideo
Elevation 53.035 m
174 ft
174 ft53.035 m
Type medium airport
Coordinates -34° 47' 21.1488", -56° 15' 52.9308"
Runways
Designator Length Width Surface ROPS
18/36 1250 m4,101.05 ft 23 m75.459 ft CON /
METAR
Observation SUAA 111600Z 14012KT 9999 FEW033 19/10 Q1017
Station Melilla
Date/Time 11 December 2017 16:00:00
Wind direction 140°
Wind speed 12 kts
Lowest cloud amount few clouds
Temperature 19°C
Dew point 10°C
Humidity 55%
QNH 1017 hPa
Weather condition n/a